createdAt,value
2022-10-30T00:00:43.447Z,2.87
2022-10-30T00:03:14.988Z,3.10
2022-10-30T00:05:43.558Z,2.77
2022-10-30T00:08:15.614Z,2.70
2022-10-30T00:10:43.502Z,2.70
2022-10-30T00:13:11.819Z,3.03
2022-10-30T00:15:39.660Z,2.87
2022-10-30T00:18:07.594Z,3.27
2022-10-30T00:20:38.048Z,3.20
2022-10-30T00:23:06.064Z,3.13
2022-10-30T00:25:35.814Z,3.20
2022-10-30T00:28:05.049Z,3.10
2022-10-30T00:30:35.047Z,3.30
2022-10-30T00:33:02.961Z,3.03
2022-10-30T00:35:31.524Z,3.30
2022-10-30T00:38:01.392Z,3.00
2022-10-30T00:40:29.654Z,2.90
2022-10-30T00:42:57.685Z,2.90
2022-10-30T00:45:25.979Z,2.90
2022-10-30T00:47:55.772Z,3.00
2022-10-30T00:50:36.999Z,2.83
2022-10-30T00:53:05.020Z,2.87
2022-10-30T00:55:38.967Z,2.93
2022-10-30T00:58:10.228Z,3.13
2022-10-30T01:00:39.613Z,2.93
2022-10-30T01:03:07.627Z,2.90
2022-10-30T01:05:36.219Z,3.10
2022-10-30T01:08:04.707Z,2.77
2022-10-30T01:10:32.560Z,3.00
2022-10-30T01:13:01.551Z,2.90
2022-10-30T01:15:31.604Z,3.00
2022-10-30T01:18:08.200Z,3.00
2022-10-30T01:20:54.788Z,2.90
2022-10-30T01:23:34.981Z,2.97
2022-10-30T01:26:21.701Z,3.17
2022-10-30T01:29:08.406Z,2.90
2022-10-30T01:31:36.343Z,2.87
2022-10-30T01:34:13.200Z,2.80
2022-10-30T01:36:47.060Z,2.77
2022-10-30T01:39:21.215Z,3.00
2022-10-30T01:41:49.198Z,3.23
2022-10-30T01:44:24.250Z,3.20
2022-10-30T01:46:52.540Z,3.20
2022-10-30T01:52:05.696Z,2.90
2022-10-30T01:54:40.566Z,3.33
2022-10-30T01:57:08.440Z,2.90
2022-10-30T01:59:48.301Z,2.80
2022-10-30T02:02:16.439Z,3.30
2022-10-30T02:04:44.812Z,2.70
2022-10-30T02:07:13.124Z,3.17
2022-10-30T02:09:47.179Z,3.00
2022-10-30T02:12:16.704Z,2.70
2022-10-30T02:14:46.171Z,3.00
2022-10-30T02:17:14.494Z,2.93
2022-10-30T02:19:43.410Z,3.10
2022-10-30T02:22:11.493Z,2.80
2022-10-30T02:24:39.665Z,3.37
2022-10-30T02:27:08.116Z,3.03
2022-10-30T02:29:36.024Z,3.47
2022-10-30T02:32:03.981Z,3.10
2022-10-30T02:34:34.098Z,3.17
2022-10-30T02:37:02.623Z,3.17
2022-10-30T02:39:30.652Z,2.70
2022-10-30T02:41:58.491Z,3.00
2022-10-30T02:44:26.433Z,3.33
2022-10-30T02:46:54.286Z,2.90
2022-10-30T02:49:23.227Z,3.30
2022-10-30T02:51:52.586Z,3.20
2022-10-30T02:54:20.447Z,3.73
2022-10-30T02:56:49.929Z,3.30
2022-10-30T02:59:17.936Z,3.40
2022-10-30T03:01:45.947Z,3.10
2022-10-30T03:04:13.908Z,3.00
2022-10-30T03:06:41.715Z,3.10
2022-10-30T03:09:09.603Z,2.90
2022-10-30T03:11:37.489Z,2.90
2022-10-30T03:14:05.574Z,3.13
2022-10-30T03:16:33.952Z,3.37
2022-10-30T03:19:01.907Z,3.07
2022-10-30T03:21:30.524Z,3.70
2022-10-30T03:23:58.545Z,3.00
2022-10-30T03:26:26.430Z,2.80
2022-10-30T03:29:04.450Z,2.80
2022-10-30T03:31:33.300Z,3.00
2022-10-30T03:34:17.956Z,3.10
2022-10-30T03:36:45.810Z,3.07
2022-10-30T03:39:14.795Z,2.80
2022-10-30T03:41:44.663Z,2.77
2022-10-30T03:44:13.415Z,3.37
2022-10-30T03:46:41.308Z,3.00
2022-10-30T03:49:30.425Z,2.80
2022-10-30T03:52:00.743Z,3.00
2022-10-30T03:54:28.558Z,3.30
2022-10-30T03:56:56.529Z,3.40
2022-10-30T03:59:28.000Z,3.10
2022-10-30T04:02:14.492Z,2.60
2022-10-30T04:04:43.056Z,2.93
2022-10-30T04:07:11.064Z,3.30
2022-10-30T04:09:38.900Z,2.90
2022-10-30T04:12:06.802Z,2.97
2022-10-30T04:14:34.712Z,2.90
2022-10-30T04:17:02.583Z,2.80
2022-10-30T04:19:30.543Z,3.23
2022-10-30T04:21:59.741Z,3.20
2022-10-30T04:24:27.619Z,3.03
2022-10-30T04:26:57.084Z,2.67
2022-10-30T04:29:25.431Z,2.90
2022-10-30T04:31:53.729Z,3.00
2022-10-30T04:34:22.123Z,2.70
2022-10-30T04:36:50.144Z,2.97
2022-10-30T04:39:17.993Z,2.80
2022-10-30T04:41:46.436Z,2.87
2022-10-30T04:44:20.452Z,2.80
2022-10-30T04:46:50.059Z,3.17
2022-10-30T04:49:19.335Z,2.83
2022-10-30T04:51:49.041Z,3.40
2022-10-30T04:54:18.726Z,3.33
2022-10-30T04:56:46.661Z,2.97
2022-10-30T04:59:14.530Z,3.10
2022-10-30T05:01:42.596Z,3.40
2022-10-30T05:04:10.640Z,3.33
2022-10-30T05:06:39.532Z,3.30
2022-10-30T05:09:08.582Z,3.30
2022-10-30T05:11:39.795Z,3.30
2022-10-30T05:14:09.128Z,3.20
2022-10-30T05:16:38.714Z,2.80
2022-10-30T05:19:07.388Z,2.77
2022-10-30T05:21:35.994Z,2.87
2022-10-30T05:24:05.595Z,3.33
2022-10-30T05:26:40.540Z,2.90
2022-10-30T05:29:08.490Z,3.00
2022-10-30T05:31:36.519Z,3.20
2022-10-30T05:34:16.217Z,2.87
2022-10-30T05:36:46.233Z,3.30
2022-10-30T05:39:15.661Z,3.20
2022-10-30T05:41:46.931Z,2.70
2022-10-30T05:44:28.894Z,2.90
2022-10-30T05:47:06.535Z,3.10
2022-10-30T05:49:35.996Z,3.00
2022-10-30T05:52:07.447Z,2.90
2022-10-30T05:54:36.611Z,2.83
2022-10-30T05:57:09.604Z,2.73
2022-10-30T05:59:39.975Z,3.07
2022-10-30T06:02:08.596Z,3.00
2022-10-30T06:04:37.296Z,2.87
2022-10-30T06:07:11.458Z,3.23
2022-10-30T06:09:39.456Z,2.83
2022-10-30T06:12:21.195Z,2.97
2022-10-30T06:15:01.030Z,3.30
2022-10-30T06:17:31.240Z,2.57
2022-10-30T06:20:05.331Z,3.30
2022-10-30T06:22:56.773Z,2.97
2022-10-30T06:25:28.580Z,3.03
2022-10-30T06:28:11.372Z,3.53
2022-10-30T06:30:39.451Z,3.20
2022-10-30T06:33:08.338Z,2.53
2022-10-30T06:35:37.584Z,3.10
2022-10-30T06:38:05.853Z,3.07
2022-10-30T06:40:36.539Z,3.10
2022-10-30T06:43:23.915Z,2.90
2022-10-30T06:46:08.697Z,2.97
2022-10-30T06:48:41.232Z,2.73
2022-10-30T06:51:09.586Z,3.20
2022-10-30T06:53:39.742Z,3.20
2022-10-30T06:56:26.289Z,2.90
2022-10-30T06:59:06.271Z,2.83
2022-10-30T07:01:36.451Z,2.87
2022-10-30T07:04:27.312Z,2.90
2022-10-30T07:06:59.250Z,3.00
2022-10-30T07:09:27.193Z,2.97
2022-10-30T07:11:56.916Z,2.80
2022-10-30T07:14:45.336Z,3.20
2022-10-30T07:17:36.943Z,3.07
2022-10-30T07:20:11.816Z,3.27
2022-10-30T07:22:40.168Z,3.07
2022-10-30T07:25:09.293Z,2.67
2022-10-30T07:27:56.637Z,3.07
2022-10-30T07:30:53.820Z,2.87
2022-10-30T07:33:47.904Z,3.20
2022-10-30T07:36:35.950Z,3.40
2022-10-30T07:39:29.901Z,3.80
2022-10-30T07:42:15.308Z,3.63
2022-10-30T07:45:06.286Z,3.77
2022-10-30T07:47:43.184Z,3.23
2022-10-30T07:50:30.158Z,3.27
2022-10-30T07:52:58.100Z,3.70
2022-10-30T07:55:28.666Z,3.30
2022-10-30T07:58:25.345Z,4.10
2022-10-30T08:01:13.729Z,3.70
2022-10-30T08:03:41.713Z,3.70
2022-10-30T08:06:29.879Z,4.10
2022-10-30T08:08:57.748Z,4.30
2022-10-30T08:11:28.384Z,4.30
2022-10-30T08:13:58.072Z,4.97
2022-10-30T08:16:26.026Z,4.57
2022-10-30T08:18:54.181Z,5.10
2022-10-30T08:21:25.702Z,4.90
2022-10-30T08:24:02.456Z,4.97
2022-10-30T08:26:33.235Z,4.60
2022-10-30T08:29:01.122Z,4.80
2022-10-30T08:31:31.263Z,4.43
2022-10-30T08:34:19.332Z,4.80
2022-10-30T08:36:51.588Z,4.30
2022-10-30T08:39:20.886Z,4.40
2022-10-30T08:41:59.735Z,4.30
2022-10-30T08:44:31.890Z,4.33
2022-10-30T08:47:18.362Z,4.40
2022-10-30T08:49:47.303Z,4.30
2022-10-30T08:52:19.960Z,4.30
2022-10-30T08:54:54.567Z,4.47
2022-10-30T08:57:24.894Z,4.73
2022-10-30T08:59:54.693Z,4.17
2022-10-30T09:02:48.536Z,3.93
2022-10-30T09:05:34.951Z,4.30
2022-10-30T09:08:17.850Z,4.50
2022-10-30T09:11:06.096Z,4.20
2022-10-30T09:13:34.543Z,4.17
2022-10-30T09:16:03.708Z,4.60
2022-10-30T09:18:34.279Z,4.07
2022-10-30T09:21:04.755Z,4.57
2022-10-30T09:23:38.706Z,4.90
2022-10-30T09:26:25.038Z,4.90
2022-10-30T09:28:59.096Z,4.70
2022-10-30T09:31:45.104Z,4.63
2022-10-30T09:34:18.047Z,3.70
2022-10-30T09:36:49.852Z,4.47
2022-10-30T09:39:19.252Z,3.73
2022-10-30T09:42:00.025Z,3.47
2022-10-30T09:44:43.771Z,4.60
2022-10-30T09:47:23.303Z,4.03
2022-10-30T09:49:57.907Z,4.33
2022-10-30T09:52:41.126Z,4.03
2022-10-30T09:55:18.220Z,4.10
2022-10-30T09:57:46.069Z,3.83
2022-10-30T10:00:22.924Z,4.07
2022-10-30T10:03:14.950Z,4.10
2022-10-30T10:06:03.855Z,4.27
2022-10-30T10:09:20.995Z,3.73
2022-10-30T10:12:23.909Z,3.53
2022-10-30T10:14:52.532Z,3.83
2022-10-30T10:17:25.526Z,3.93
2022-10-30T10:19:59.658Z,3.83
2022-10-30T10:22:34.653Z,3.60
2022-10-30T10:25:03.888Z,3.23
2022-10-30T10:27:50.272Z,3.47
2022-10-30T10:30:25.414Z,4.27
2022-10-30T10:32:53.345Z,3.90
2022-10-30T10:35:39.821Z,3.27
2022-10-30T10:38:20.042Z,4.10
2022-10-30T10:40:55.368Z,3.33
2022-10-30T10:43:23.383Z,3.80
2022-10-30T10:45:57.649Z,4.60
2022-10-30T10:48:28.586Z,4.80
2022-10-30T10:51:15.055Z,4.72
2022-10-30T10:53:42.929Z,2.83
2022-10-30T10:56:11.677Z,3.30
2022-10-30T10:58:45.717Z,3.33
2022-10-30T11:01:16.190Z,4.78
2022-10-30T11:03:52.474Z,3.83
2022-10-30T11:06:29.768Z,3.53
2022-10-30T11:09:03.564Z,3.05
2022-10-30T11:11:31.551Z,3.42
2022-10-30T11:13:59.841Z,2.83
2022-10-30T11:16:39.689Z,3.15
2022-10-30T11:19:09.868Z,2.95
2022-10-30T11:21:40.918Z,3.28
2022-10-30T11:24:37.916Z,3.30
2022-10-30T11:27:19.648Z,3.20
2022-10-30T11:29:53.520Z,3.60
2022-10-30T11:32:22.934Z,3.38
2022-10-30T11:35:03.485Z,3.10
2022-10-30T11:37:32.792Z,3.20
2022-10-30T11:40:08.845Z,3.20
2022-10-30T11:42:37.299Z,2.78
2022-10-30T11:45:05.938Z,2.75
2022-10-30T11:50:16.073Z,3.22
2022-10-30T11:52:45.432Z,3.08
2022-10-30T11:55:21.821Z,2.90
2022-10-30T11:57:54.051Z,2.95
2022-10-30T12:00:23.804Z,2.63
2022-10-30T12:02:52.992Z,3.42
2022-10-30T12:05:26.818Z,2.90
2022-10-30T12:07:55.529Z,3.05
2022-10-30T12:10:26.645Z,2.92
2022-10-30T12:12:54.636Z,3.08
2022-10-30T12:15:25.158Z,2.92
2022-10-30T12:18:03.490Z,14.77
2022-10-30T12:20:31.612Z,3.70
2022-10-30T12:23:00.042Z,3.45
2022-10-30T12:25:30.251Z,8.98
2022-10-30T12:28:18.656Z,4.47
2022-10-30T12:30:58.961Z,3.30
2022-10-30T12:33:29.668Z,3.20
2022-10-30T12:35:59.940Z,2.90
2022-10-30T12:38:49.203Z,3.55
2022-10-30T12:41:17.005Z,3.28
2022-10-30T12:43:47.272Z,2.97
2022-10-30T12:46:15.059Z,3.20
2022-10-30T12:48:49.065Z,3.42
2022-10-30T12:51:24.096Z,3.20
2022-10-30T12:54:01.994Z,3.03
2022-10-30T12:56:34.998Z,3.17
2022-10-30T12:59:11.799Z,3.50
2022-10-30T13:01:43.852Z,3.25
2022-10-30T13:04:18.165Z,3.00
2022-10-30T13:06:56.828Z,2.97
2022-10-30T13:09:39.309Z,3.35
2022-10-30T13:12:13.930Z,3.40
2022-10-30T13:14:41.847Z,2.88
2022-10-30T13:17:13.198Z,3.58
2022-10-30T13:19:45.760Z,3.00
2022-10-30T13:22:32.338Z,3.20
2022-10-30T13:25:14.761Z,3.28
2022-10-30T13:27:53.290Z,3.65
2022-10-30T13:30:22.072Z,3.20
2022-10-30T13:33:08.673Z,3.20
2022-10-30T13:35:36.587Z,3.25
2022-10-30T13:38:23.605Z,3.42
2022-10-30T13:40:53.857Z,3.22
2022-10-30T13:43:40.054Z,3.28
2022-10-30T13:46:18.632Z,3.42
2022-10-30T13:48:55.724Z,3.40
2022-10-30T13:51:42.328Z,3.47
2022-10-30T13:54:14.149Z,3.70
2022-10-30T13:56:43.928Z,3.25
2022-10-30T13:59:17.425Z,3.40
2022-10-30T14:02:01.587Z,3.28
2022-10-30T14:04:48.322Z,3.30
2022-10-30T14:07:19.252Z,3.70
2022-10-30T14:09:50.128Z,3.33
2022-10-30T14:12:36.402Z,3.13
2022-10-30T14:15:07.090Z,3.13
2022-10-30T14:17:35.417Z,3.85
2022-10-30T14:20:13.313Z,3.08
2022-10-30T14:22:42.273Z,3.70
2022-10-30T14:25:14.261Z,3.60
2022-10-30T14:27:42.215Z,3.50
2022-10-30T14:30:20.614Z,3.42
2022-10-30T14:32:52.576Z,3.67
2022-10-30T14:35:33.277Z,3.47
2022-10-30T14:38:21.421Z,3.25
2022-10-30T14:40:56.563Z,3.72
2022-10-30T14:43:27.376Z,3.30
2022-10-30T14:46:01.594Z,2.97
2022-10-30T14:48:37.225Z,3.28
2022-10-30T14:51:20.881Z,3.40
2022-10-30T14:53:54.809Z,3.38
2022-10-30T14:56:31.896Z,3.20
2022-10-30T14:59:14.828Z,3.30
2022-10-30T15:01:47.803Z,3.20
2022-10-30T15:04:45.194Z,2.90
2022-10-30T15:07:16.436Z,2.95
2022-10-30T15:09:44.391Z,3.60
2022-10-30T15:12:14.995Z,3.35
2022-10-30T15:14:54.031Z,3.55
2022-10-30T15:17:28.596Z,2.95
2022-10-30T15:19:56.880Z,2.97
2022-10-30T15:22:25.992Z,3.28
2022-10-30T15:24:53.808Z,3.33
2022-10-30T15:27:22.840Z,3.08
2022-10-30T15:29:59.889Z,3.40
2022-10-30T15:32:28.381Z,3.90
2022-10-30T15:34:56.196Z,3.35
2022-10-30T15:37:24.553Z,3.42
2022-10-30T15:40:10.159Z,5.82
2022-10-30T15:42:38.958Z,5.95
2022-10-30T15:45:07.253Z,4.72
2022-10-30T15:47:35.100Z,8.18
2022-10-30T15:50:02.938Z,7.68
2022-10-30T15:52:33.266Z,7.85
2022-10-30T15:55:02.637Z,5.80
2022-10-30T16:00:22.713Z,6.40
2022-10-30T16:03:00.213Z,7.10
2022-10-30T16:05:28.775Z,8.07
2022-10-30T16:08:00.442Z,8.15
2022-10-30T16:10:30.882Z,7.50
2022-10-30T16:12:59.274Z,6.43
2022-10-30T16:15:31.815Z,6.40
2022-10-30T16:18:05.937Z,4.90
2022-10-30T16:20:34.423Z,5.28
2022-10-30T16:23:02.903Z,5.88
2022-10-30T16:25:32.904Z,5.90
2022-10-30T16:28:01.115Z,5.63
2022-10-30T16:30:32.639Z,5.13
2022-10-30T16:33:01.485Z,4.57
2022-10-30T16:35:29.732Z,5.63
2022-10-30T16:37:58.006Z,5.95
2022-10-30T16:40:29.881Z,5.50
2022-10-30T16:42:59.153Z,5.03
2022-10-30T16:45:47.568Z,4.60
2022-10-30T16:50:51.061Z,4.30
2022-10-30T16:53:24.314Z,3.90
2022-10-30T16:55:53.084Z,4.13
2022-10-30T16:58:21.548Z,4.45
2022-10-30T17:00:51.576Z,3.60
2022-10-30T17:03:25.284Z,4.10
2022-10-30T17:06:03.958Z,4.40
2022-10-30T17:08:41.951Z,4.30
2022-10-30T17:11:20.180Z,4.28
2022-10-30T17:13:53.998Z,4.60
2022-10-30T17:16:29.508Z,4.32
2022-10-30T17:18:58.583Z,4.05
2022-10-30T17:21:42.519Z,3.80
2022-10-30T17:24:25.744Z,4.07
2022-10-30T17:27:03.506Z,5.10
2022-10-30T17:29:37.511Z,4.53
2022-10-30T17:32:06.378Z,4.10
2022-10-30T17:34:40.437Z,3.97
2022-10-30T17:37:08.244Z,4.00
2022-10-30T17:39:36.125Z,4.20
2022-10-30T17:42:04.278Z,4.25
2022-10-30T17:44:34.193Z,3.80
2022-10-30T17:47:02.970Z,4.13
2022-10-30T17:49:33.908Z,3.70
2022-10-30T17:52:02.666Z,3.78
2022-10-30T17:54:30.672Z,3.78
2022-10-30T17:56:59.273Z,3.78
2022-10-30T17:59:27.109Z,4.85
2022-10-30T18:01:57.166Z,5.35
2022-10-30T18:04:25.136Z,5.28
2022-10-30T18:06:52.960Z,5.40
2022-10-30T18:09:20.832Z,6.38
2022-10-30T18:11:48.770Z,5.10
2022-10-30T18:14:17.494Z,3.90
2022-10-30T18:16:45.392Z,3.97
2022-10-30T18:19:13.312Z,5.05
2022-10-30T18:21:41.374Z,4.70
2022-10-30T18:24:13.500Z,4.95
2022-10-30T18:26:41.414Z,4.80
2022-10-30T18:29:10.158Z,4.90
2022-10-30T18:31:38.592Z,4.70
2022-10-30T18:34:11.600Z,5.07
2022-10-30T18:36:39.492Z,4.68
2022-10-30T18:39:07.350Z,4.05
2022-10-30T18:41:37.631Z,4.05
2022-10-30T18:44:05.564Z,4.10
2022-10-30T18:46:34.391Z,4.68
2022-10-30T18:49:02.339Z,3.78
2022-10-30T18:51:30.436Z,3.92
2022-10-30T18:53:58.411Z,4.13
2022-10-30T18:56:27.596Z,4.22
2022-10-30T18:59:00.535Z,4.10
2022-10-30T19:01:33.903Z,4.15
2022-10-30T19:04:04.163Z,4.22
2022-10-30T19:06:34.739Z,4.38
2022-10-30T19:09:03.005Z,3.88
2022-10-30T19:11:31.913Z,3.90
2022-10-30T19:14:00.350Z,4.63
2022-10-30T19:16:28.346Z,3.80
2022-10-30T19:18:56.207Z,4.28
2022-10-30T19:21:25.923Z,4.07
2022-10-30T19:23:55.360Z,3.80
2022-10-30T19:26:23.720Z,3.85
2022-10-30T19:28:51.569Z,4.00
2022-10-30T19:31:20.068Z,3.80
2022-10-30T19:33:52.853Z,3.60
2022-10-30T19:36:28.384Z,3.60
2022-10-30T19:38:56.646Z,3.78
2022-10-30T19:41:25.147Z,3.80
2022-10-30T19:43:53.628Z,3.23
2022-10-30T19:46:22.051Z,3.67
2022-10-30T19:48:58.644Z,4.15
2022-10-30T19:51:27.935Z,4.10
2022-10-30T19:53:56.046Z,3.50
2022-10-30T19:56:24.304Z,3.33
2022-10-30T19:58:52.239Z,3.63
2022-10-30T20:01:20.302Z,3.53
2022-10-30T20:03:48.286Z,3.42
2022-10-30T20:06:16.287Z,3.65
2022-10-30T20:08:44.783Z,3.42
2022-10-30T20:11:12.695Z,3.80
2022-10-30T20:13:40.646Z,3.23
2022-10-30T20:16:08.649Z,3.60
2022-10-30T20:18:36.622Z,3.23
2022-10-30T20:21:08.616Z,3.83
2022-10-30T20:23:36.874Z,3.23
2022-10-30T20:26:06.641Z,3.20
2022-10-30T20:28:38.722Z,3.70
2022-10-30T20:31:07.131Z,3.83
2022-10-30T20:33:35.170Z,3.77
2022-10-30T20:36:03.083Z,3.40
2022-10-30T20:38:33.201Z,3.20
2022-10-30T20:41:02.041Z,3.70
2022-10-30T20:43:31.405Z,3.57
2022-10-30T20:45:59.779Z,3.77
2022-10-30T20:48:28.245Z,3.60
2022-10-30T20:50:57.065Z,3.33
2022-10-30T20:53:25.362Z,3.30
2022-10-30T20:55:53.465Z,3.73
2022-10-30T20:58:21.557Z,3.53
2022-10-30T21:00:49.939Z,3.33
2022-10-30T21:03:18.007Z,3.40
2022-10-30T21:05:46.451Z,3.40
2022-10-30T21:08:14.747Z,3.50
2022-10-30T21:10:43.075Z,3.47
2022-10-30T21:13:11.659Z,3.80
2022-10-30T21:15:43.190Z,3.43
2022-10-30T21:18:11.697Z,3.80
2022-10-30T21:20:41.316Z,3.67
2022-10-30T21:23:09.417Z,3.73
2022-10-30T21:25:37.363Z,3.90
2022-10-30T21:28:05.416Z,3.70
2022-10-30T21:30:33.329Z,3.57
2022-10-30T21:33:01.516Z,4.20
2022-10-30T21:35:29.912Z,3.33
2022-10-30T21:37:57.752Z,3.97
2022-10-30T21:40:25.582Z,3.83
2022-10-30T21:42:53.450Z,3.87
2022-10-30T21:45:21.305Z,3.50
2022-10-30T21:47:52.545Z,3.57
2022-10-30T21:50:20.595Z,3.60
2022-10-30T21:52:48.469Z,3.83
2022-10-30T21:55:16.457Z,4.20
2022-10-30T21:57:44.426Z,3.73
2022-10-30T22:00:12.867Z,3.60
2022-10-30T22:02:41.726Z,3.70
2022-10-30T22:05:12.687Z,3.97
2022-10-30T22:07:40.473Z,3.87
2022-10-30T22:10:08.717Z,3.57
2022-10-30T22:12:36.547Z,3.50
2022-10-30T22:15:04.675Z,3.73
2022-10-30T22:17:34.875Z,4.00
2022-10-30T22:20:03.249Z,4.10
2022-10-30T22:22:31.064Z,3.40
2022-10-30T22:24:59.014Z,3.90
2022-10-30T22:27:26.802Z,3.50
2022-10-30T22:29:54.803Z,3.47
2022-10-30T22:32:23.682Z,3.77
2022-10-30T22:34:51.554Z,3.60
2022-10-30T22:37:19.583Z,3.90
2022-10-30T22:39:47.395Z,3.50
2022-10-30T22:42:15.267Z,3.37
2022-10-30T22:44:43.132Z,3.53
2022-10-30T22:47:10.996Z,3.93
2022-10-30T22:49:38.837Z,3.83
2022-10-30T22:52:06.785Z,3.80
2022-10-30T22:54:34.623Z,3.90
2022-10-30T22:57:02.552Z,3.70
2022-10-30T22:59:30.410Z,4.00
2022-10-30T23:01:58.388Z,3.63
2022-10-30T23:04:26.252Z,3.53
2022-10-30T23:06:54.122Z,3.40
2022-10-30T23:09:22.405Z,4.00
2022-10-30T23:11:50.583Z,3.50
2022-10-30T23:14:19.203Z,3.77
2022-10-30T23:16:47.062Z,3.70
2022-10-30T23:19:15.253Z,3.60
2022-10-30T23:21:43.014Z,3.17
2022-10-30T23:24:10.920Z,3.30
2022-10-30T23:26:38.799Z,3.50
2022-10-30T23:29:06.837Z,3.50
2022-10-30T23:31:36.585Z,3.33
2022-10-30T23:34:05.750Z,3.40
2022-10-30T23:36:33.593Z,3.90
2022-10-30T23:39:02.343Z,3.50
2022-10-30T23:41:31.525Z,3.53
2022-10-30T23:44:00.386Z,3.60
2022-10-30T23:46:28.725Z,3.33
2022-10-30T23:48:56.725Z,3.43
2022-10-30T23:51:25.180Z,3.63
2022-10-30T23:53:53.076Z,3.90
2022-10-30T23:56:21.366Z,3.53
2022-10-30T23:58:50.861Z,3.10
